sensor_id;sensor_type;location;lat;lon;timestamp;P1;durP1;ratioP1;P2;durP2;ratioP2
73264;SDS011;61493;51.008;14.088;2022-11-20T00:03:34;22.33;;;8.93;;
73264;SDS011;61493;51.008;14.088;2022-11-20T00:06:04;26.33;;;11.60;;
73264;SDS011;61493;51.008;14.088;2022-11-20T00:08:31;17.17;;;8.90;;
73264;SDS011;61493;51.008;14.088;2022-11-20T00:11:06;24.33;;;9.53;;
73264;SDS011;61493;51.008;14.088;2022-11-20T00:13:33;20.47;;;10.33;;
73264;SDS011;61493;51.008;14.088;2022-11-20T00:15:59;17.33;;;9.50;;
73264;SDS011;61493;51.008;14.088;2022-11-20T00:18:26;21.63;;;9.33;;
73264;SDS011;61493;51.008;14.088;2022-11-20T00:20:52;24.27;;;12.50;;
73264;SDS011;61493;51.008;14.088;2022-11-20T00:23:18;20.20;;;10.60;;
73264;SDS011;61493;51.008;14.088;2022-11-20T00:25:43;20.90;;;10.53;;
73264;SDS011;61493;51.008;14.088;2022-11-20T00:28:08;25.50;;;9.87;;
73264;SDS011;61493;51.008;14.088;2022-11-20T00:30:34;25.97;;;10.77;;
73264;SDS011;61493;51.008;14.088;2022-11-20T00:32:59;24.90;;;10.97;;
73264;SDS011;61493;51.008;14.088;2022-11-20T00:35:24;23.83;;;9.83;;
73264;SDS011;61493;51.008;14.088;2022-11-20T00:37:50;20.73;;;9.27;;
73264;SDS011;61493;51.008;14.088;2022-11-20T00:40:15;24.30;;;8.30;;
73264;SDS011;61493;51.008;14.088;2022-11-20T00:42:40;15.30;;;9.90;;
73264;SDS011;61493;51.008;14.088;2022-11-20T00:45:06;18.17;;;9.50;;
73264;SDS011;61493;51.008;14.088;2022-11-20T00:47:35;18.13;;;11.00;;
73264;SDS011;61493;51.008;14.088;2022-11-20T00:50:00;21.87;;;10.67;;
73264;SDS011;61493;51.008;14.088;2022-11-20T00:52:33;20.03;;;9.27;;
73264;SDS011;61493;51.008;14.088;2022-11-20T00:57:24;16.93;;;7.67;;
73264;SDS011;61493;51.008;14.088;2022-11-20T00:59:49;16.00;;;8.07;;
73264;SDS011;61493;51.008;14.088;2022-11-20T01:02:15;22.60;;;9.77;;
73264;SDS011;61493;51.008;14.088;2022-11-20T01:04:41;18.63;;;9.83;;
73264;SDS011;61493;51.008;14.088;2022-11-20T01:07:07;25.73;;;10.83;;
73264;SDS011;61493;51.008;14.088;2022-11-20T01:09:32;21.87;;;8.47;;
73264;SDS011;61493;51.008;14.088;2022-11-20T01:11:57;20.83;;;9.13;;
73264;SDS011;61493;51.008;14.088;2022-11-20T01:14:24;25.97;;;10.57;;
73264;SDS011;61493;51.008;14.088;2022-11-20T01:16:49;23.43;;;10.07;;
73264;SDS011;61493;51.008;14.088;2022-11-20T01:19:22;24.07;;;9.87;;
73264;SDS011;61493;51.008;14.088;2022-11-20T01:21:49;18.60;;;8.77;;
73264;SDS011;61493;51.008;14.088;2022-11-20T01:24:17;16.23;;;8.67;;
73264;SDS011;61493;51.008;14.088;2022-11-20T01:26:44;21.70;;;10.10;;
73264;SDS011;61493;51.008;14.088;2022-11-20T01:29:16;15.20;;;9.57;;
73264;SDS011;61493;51.008;14.088;2022-11-20T01:31:43;21.60;;;8.10;;
73264;SDS011;61493;51.008;14.088;2022-11-20T01:34:12;18.60;;;9.27;;
73264;SDS011;61493;51.008;14.088;2022-11-20T01:36:39;19.20;;;8.90;;
73264;SDS011;61493;51.008;14.088;2022-11-20T01:39:06;20.60;;;9.30;;
73264;SDS011;61493;51.008;14.088;2022-11-20T01:41:35;17.90;;;8.83;;
73264;SDS011;61493;51.008;14.088;2022-11-20T01:44:20;20.93;;;9.87;;
73264;SDS011;61493;51.008;14.088;2022-11-20T01:47:00;18.63;;;9.37;;
73264;SDS011;61493;51.008;14.088;2022-11-20T01:51:58;23.07;;;11.30;;
73264;SDS011;61493;51.008;14.088;2022-11-20T01:54:39;16.03;;;8.27;;
73264;SDS011;61493;51.008;14.088;2022-11-20T01:57:09;21.43;;;9.57;;
73264;SDS011;61493;51.008;14.088;2022-11-20T01:59:38;25.03;;;11.07;;
73264;SDS011;61493;51.008;14.088;2022-11-20T02:02:09;19.15;;;10.38;;
73264;SDS011;61493;51.008;14.088;2022-11-20T02:04:35;28.83;;;11.73;;
73264;SDS011;61493;51.008;14.088;2022-11-20T02:07:01;21.77;;;9.23;;
73264;SDS011;61493;51.008;14.088;2022-11-20T02:09:48;25.20;;;11.30;;
73264;SDS011;61493;51.008;14.088;2022-11-20T02:12:14;22.00;;;10.23;;
73264;SDS011;61493;51.008;14.088;2022-11-20T02:15:00;23.47;;;11.97;;
73264;SDS011;61493;51.008;14.088;2022-11-20T02:17:25;24.80;;;12.53;;
73264;SDS011;61493;51.008;14.088;2022-11-20T02:19:51;24.93;;;9.60;;
73264;SDS011;61493;51.008;14.088;2022-11-20T02:22:22;26.87;;;9.63;;
73264;SDS011;61493;51.008;14.088;2022-11-20T02:24:56;21.83;;;10.67;;
73264;SDS011;61493;51.008;14.088;2022-11-20T02:27:24;30.27;;;12.73;;
73264;SDS011;61493;51.008;14.088;2022-11-20T02:32:30;17.50;;;7.77;;
73264;SDS011;61493;51.008;14.088;2022-11-20T02:34:57;23.53;;;11.23;;
73264;SDS011;61493;51.008;14.088;2022-11-20T02:37:25;25.43;;;10.40;;
73264;SDS011;61493;51.008;14.088;2022-11-20T02:39:57;17.97;;;7.80;;
73264;SDS011;61493;51.008;14.088;2022-11-20T02:42:22;22.27;;;9.63;;
73264;SDS011;61493;51.008;14.088;2022-11-20T02:44:48;21.73;;;9.77;;
73264;SDS011;61493;51.008;14.088;2022-11-20T02:47:13;21.93;;;9.87;;
73264;SDS011;61493;51.008;14.088;2022-11-20T02:49:38;25.67;;;10.10;;
73264;SDS011;61493;51.008;14.088;2022-11-20T02:52:03;24.77;;;9.50;;
73264;SDS011;61493;51.008;14.088;2022-11-20T02:54:29;21.20;;;9.37;;
73264;SDS011;61493;51.008;14.088;2022-11-20T02:56:54;23.90;;;10.80;;
73264;SDS011;61493;51.008;14.088;2022-11-20T02:59:19;28.13;;;10.80;;
73264;SDS011;61493;51.008;14.088;2022-11-20T03:01:45;21.97;;;10.17;;
73264;SDS011;61493;51.008;14.088;2022-11-20T03:04:10;21.47;;;10.83;;
73264;SDS011;61493;51.008;14.088;2022-11-20T03:06:35;31.10;;;12.97;;
73264;SDS011;61493;51.008;14.088;2022-11-20T03:09:01;23.03;;;10.63;;
73264;SDS011;61493;51.008;14.088;2022-11-20T03:11:26;21.37;;;10.37;;
73264;SDS011;61493;51.008;14.088;2022-11-20T03:13:52;19.53;;;9.03;;
73264;SDS011;61493;51.008;14.088;2022-11-20T03:16:19;22.80;;;9.87;;
73264;SDS011;61493;51.008;14.088;2022-11-20T03:18:46;29.07;;;10.47;;
73264;SDS011;61493;51.008;14.088;2022-11-20T03:21:11;26.60;;;10.70;;
73264;SDS011;61493;51.008;14.088;2022-11-20T03:23:38;28.07;;;12.40;;
73264;SDS011;61493;51.008;14.088;2022-11-20T03:26:10;21.03;;;10.83;;
73264;SDS011;61493;51.008;14.088;2022-11-20T03:28:38;30.27;;;11.90;;
73264;SDS011;61493;51.008;14.088;2022-11-20T03:31:08;23.83;;;11.80;;
73264;SDS011;61493;51.008;14.088;2022-11-20T03:33:34;24.13;;;8.93;;
73264;SDS011;61493;51.008;14.088;2022-11-20T03:36:01;24.13;;;10.33;;
73264;SDS011;61493;51.008;14.088;2022-11-20T03:38:31;26.77;;;11.90;;
73264;SDS011;61493;51.008;14.088;2022-11-20T03:41:00;24.60;;;11.20;;
73264;SDS011;61493;51.008;14.088;2022-11-20T03:43:36;27.90;;;11.67;;
73264;SDS011;61493;51.008;14.088;2022-11-20T03:46:02;24.47;;;11.77;;
73264;SDS011;61493;51.008;14.088;2022-11-20T03:48:28;20.70;;;10.10;;
73264;SDS011;61493;51.008;14.088;2022-11-20T03:53:40;18.90;;;9.67;;
73264;SDS011;61493;51.008;14.088;2022-11-20T03:56:07;26.47;;;12.33;;
73264;SDS011;61493;51.008;14.088;2022-11-20T03:58:33;24.93;;;10.93;;
73264;SDS011;61493;51.008;14.088;2022-11-20T04:01:15;23.77;;;12.67;;
73264;SDS011;61493;51.008;14.088;2022-11-20T04:03:45;31.77;;;12.27;;
73264;SDS011;61493;51.008;14.088;2022-11-20T04:06:15;27.53;;;11.50;;
73264;SDS011;61493;51.008;14.088;2022-11-20T04:08:42;20.23;;;10.50;;
73264;SDS011;61493;51.008;14.088;2022-11-20T04:13:33;28.40;;;12.87;;
73264;SDS011;61493;51.008;14.088;2022-11-20T04:15:59;16.00;;;8.93;;
73264;SDS011;61493;51.008;14.088;2022-11-20T04:18:24;30.93;;;15.17;;
73264;SDS011;61493;51.008;14.088;2022-11-20T04:20:49;33.50;;;16.70;;
73264;SDS011;61493;51.008;14.088;2022-11-20T04:23:14;36.67;;;15.40;;
73264;SDS011;61493;51.008;14.088;2022-11-20T04:25:40;31.30;;;14.03;;
73264;SDS011;61493;51.008;14.088;2022-11-20T04:28:05;30.67;;;14.83;;
73264;SDS011;61493;51.008;14.088;2022-11-20T04:30:30;24.10;;;10.33;;
73264;SDS011;61493;51.008;14.088;2022-11-20T04:32:56;37.47;;;14.03;;
73264;SDS011;61493;51.008;14.088;2022-11-20T04:35:21;25.10;;;11.83;;
73264;SDS011;61493;51.008;14.088;2022-11-20T04:37:46;28.57;;;15.07;;
73264;SDS011;61493;51.008;14.088;2022-11-20T04:40:12;30.40;;;14.17;;
73264;SDS011;61493;51.008;14.088;2022-11-20T04:42:37;27.63;;;13.60;;
73264;SDS011;61493;51.008;14.088;2022-11-20T04:45:02;31.17;;;14.23;;
73264;SDS011;61493;51.008;14.088;2022-11-20T04:47:28;34.57;;;12.67;;
73264;SDS011;61493;51.008;14.088;2022-11-20T04:49:53;31.03;;;14.03;;
73264;SDS011;61493;51.008;14.088;2022-11-20T04:52:18;26.03;;;10.80;;
73264;SDS011;61493;51.008;14.088;2022-11-20T04:54:44;24.40;;;12.17;;
73264;SDS011;61493;51.008;14.088;2022-11-20T04:57:09;29.60;;;12.90;;
73264;SDS011;61493;51.008;14.088;2022-11-20T04:59:34;28.90;;;10.33;;
73264;SDS011;61493;51.008;14.088;2022-11-20T05:01:59;26.93;;;12.83;;
73264;SDS011;61493;51.008;14.088;2022-11-20T05:04:25;25.23;;;10.00;;
73264;SDS011;61493;51.008;14.088;2022-11-20T05:06:50;22.93;;;9.77;;
73264;SDS011;61493;51.008;14.088;2022-11-20T05:09:15;36.00;;;11.93;;
73264;SDS011;61493;51.008;14.088;2022-11-20T05:11:41;31.63;;;13.60;;
73264;SDS011;61493;51.008;14.088;2022-11-20T05:14:06;22.13;;;11.60;;
73264;SDS011;61493;51.008;14.088;2022-11-20T05:16:33;35.60;;;15.03;;
73264;SDS011;61493;51.008;14.088;2022-11-20T05:18:59;27.27;;;11.70;;
73264;SDS011;61493;51.008;14.088;2022-11-20T05:21:24;24.00;;;10.93;;
73264;SDS011;61493;51.008;14.088;2022-11-20T05:23:50;32.97;;;14.10;;
73264;SDS011;61493;51.008;14.088;2022-11-20T05:26:19;22.17;;;10.87;;
73264;SDS011;61493;51.008;14.088;2022-11-20T05:28:49;30.30;;;12.70;;
73264;SDS011;61493;51.008;14.088;2022-11-20T05:31:16;32.10;;;14.07;;
73264;SDS011;61493;51.008;14.088;2022-11-20T05:33:43;36.13;;;14.37;;
73264;SDS011;61493;51.008;14.088;2022-11-20T05:36:10;29.37;;;11.20;;
73264;SDS011;61493;51.008;14.088;2022-11-20T05:38:36;20.33;;;9.70;;
73264;SDS011;61493;51.008;14.088;2022-11-20T05:41:03;27.97;;;13.23;;
73264;SDS011;61493;51.008;14.088;2022-11-20T05:43:31;19.63;;;10.07;;
73264;SDS011;61493;51.008;14.088;2022-11-20T05:45:57;33.30;;;14.57;;
73264;SDS011;61493;51.008;14.088;2022-11-20T05:48:22;26.73;;;12.63;;
73264;SDS011;61493;51.008;14.088;2022-11-20T05:50:48;25.67;;;12.90;;
73264;SDS011;61493;51.008;14.088;2022-11-20T05:53:13;20.77;;;10.30;;
73264;SDS011;61493;51.008;14.088;2022-11-20T05:55:38;20.40;;;10.43;;
73264;SDS011;61493;51.008;14.088;2022-11-20T05:58:04;24.93;;;11.27;;
73264;SDS011;61493;51.008;14.088;2022-11-20T06:00:29;23.97;;;12.47;;
73264;SDS011;61493;51.008;14.088;2022-11-20T06:02:54;28.93;;;11.90;;
73264;SDS011;61493;51.008;14.088;2022-11-20T06:05:20;22.93;;;9.03;;
73264;SDS011;61493;51.008;14.088;2022-11-20T06:07:45;32.93;;;12.47;;
73264;SDS011;61493;51.008;14.088;2022-11-20T06:10:10;33.30;;;14.80;;
73264;SDS011;61493;51.008;14.088;2022-11-20T06:12:36;28.30;;;13.83;;
73264;SDS011;61493;51.008;14.088;2022-11-20T06:15:01;24.03;;;10.23;;
73264;SDS011;61493;51.008;14.088;2022-11-20T06:17:27;19.57;;;10.73;;
73264;SDS011;61493;51.008;14.088;2022-11-20T06:19:52;25.57;;;11.50;;
73264;SDS011;61493;51.008;14.088;2022-11-20T06:22:17;28.23;;;12.20;;
73264;SDS011;61493;51.008;14.088;2022-11-20T06:24:43;27.37;;;12.33;;
73264;SDS011;61493;51.008;14.088;2022-11-20T06:27:08;29.27;;;14.57;;
73264;SDS011;61493;51.008;14.088;2022-11-20T06:29:33;31.40;;;13.20;;
73264;SDS011;61493;51.008;14.088;2022-11-20T06:31:59;27.17;;;14.93;;
73264;SDS011;61493;51.008;14.088;2022-11-20T06:34:25;25.93;;;11.27;;
73264;SDS011;61493;51.008;14.088;2022-11-20T06:36:50;31.97;;;12.67;;
73264;SDS011;61493;51.008;14.088;2022-11-20T06:39:15;31.97;;;12.60;;
73264;SDS011;61493;51.008;14.088;2022-11-20T06:41:41;21.33;;;11.77;;
73264;SDS011;61493;51.008;14.088;2022-11-20T06:44:06;22.73;;;12.13;;
73264;SDS011;61493;51.008;14.088;2022-11-20T06:46:31;27.33;;;11.63;;
73264;SDS011;61493;51.008;14.088;2022-11-20T06:48:57;27.83;;;13.70;;
73264;SDS011;61493;51.008;14.088;2022-11-20T06:51:23;31.63;;;13.27;;
73264;SDS011;61493;51.008;14.088;2022-11-20T06:53:48;25.50;;;12.90;;
73264;SDS011;61493;51.008;14.088;2022-11-20T06:56:13;32.23;;;14.50;;
73264;SDS011;61493;51.008;14.088;2022-11-20T06:58:39;30.57;;;12.67;;
73264;SDS011;61493;51.008;14.088;2022-11-20T07:01:09;27.30;;;12.13;;
73264;SDS011;61493;51.008;14.088;2022-11-20T07:03:36;32.90;;;12.68;;
73264;SDS011;61493;51.008;14.088;2022-11-20T07:06:02;31.50;;;12.73;;
73264;SDS011;61493;51.008;14.088;2022-11-20T07:08:28;26.93;;;12.90;;
73264;SDS011;61493;51.008;14.088;2022-11-20T07:11:00;20.57;;;9.70;;
73264;SDS011;61493;51.008;14.088;2022-11-20T07:13:27;29.70;;;9.63;;
73264;SDS011;61493;51.008;14.088;2022-11-20T07:15:53;35.00;;;13.47;;
73264;SDS011;61493;51.008;14.088;2022-11-20T07:18:19;24.83;;;12.47;;
73264;SDS011;61493;51.008;14.088;2022-11-20T07:20:45;25.37;;;11.93;;
73264;SDS011;61493;51.008;14.088;2022-11-20T07:23:10;22.93;;;10.03;;
73264;SDS011;61493;51.008;14.088;2022-11-20T07:25:35;29.77;;;13.77;;
73264;SDS011;61493;51.008;14.088;2022-11-20T07:28:01;31.67;;;14.53;;
73264;SDS011;61493;51.008;14.088;2022-11-20T07:30:27;34.50;;;16.97;;
73264;SDS011;61493;51.008;14.088;2022-11-20T07:32:53;20.77;;;11.80;;
73264;SDS011;61493;51.008;14.088;2022-11-20T07:35:20;29.37;;;14.23;;
73264;SDS011;61493;51.008;14.088;2022-11-20T07:37:48;27.87;;;13.60;;
73264;SDS011;61493;51.008;14.088;2022-11-20T07:40:13;25.60;;;10.50;;
73264;SDS011;61493;51.008;14.088;2022-11-20T07:42:46;28.97;;;13.33;;
73264;SDS011;61493;51.008;14.088;2022-11-20T07:45:16;27.77;;;13.30;;
73264;SDS011;61493;51.008;14.088;2022-11-20T07:47:42;25.73;;;12.37;;
73264;SDS011;61493;51.008;14.088;2022-11-20T07:50:08;26.60;;;10.57;;
73264;SDS011;61493;51.008;14.088;2022-11-20T07:52:33;23.70;;;11.37;;
73264;SDS011;61493;51.008;14.088;2022-11-20T07:54:59;27.07;;;10.77;;
73264;SDS011;61493;51.008;14.088;2022-11-20T07:57:24;25.37;;;12.70;;
73264;SDS011;61493;51.008;14.088;2022-11-20T07:59:52;17.17;;;7.90;;
73264;SDS011;61493;51.008;14.088;2022-11-20T08:02:18;26.50;;;12.63;;
73264;SDS011;61493;51.008;14.088;2022-11-20T08:04:43;26.20;;;11.03;;
73264;SDS011;61493;51.008;14.088;2022-11-20T08:07:08;22.87;;;10.67;;
73264;SDS011;61493;51.008;14.088;2022-11-20T08:09:33;18.90;;;9.00;;
73264;SDS011;61493;51.008;14.088;2022-11-20T08:11:59;22.87;;;8.80;;
73264;SDS011;61493;51.008;14.088;2022-11-20T08:14:43;21.57;;;9.37;;
73264;SDS011;61493;51.008;14.088;2022-11-20T08:17:08;22.43;;;8.87;;
73264;SDS011;61493;51.008;14.088;2022-11-20T08:19:33;25.43;;;10.13;;
73264;SDS011;61493;51.008;14.088;2022-11-20T08:21:58;17.00;;;8.07;;
73264;SDS011;61493;51.008;14.088;2022-11-20T08:24:24;20.93;;;9.07;;
73264;SDS011;61493;51.008;14.088;2022-11-20T08:26:51;15.17;;;8.43;;
73264;SDS011;61493;51.008;14.088;2022-11-20T08:29:17;19.50;;;9.07;;
73264;SDS011;61493;51.008;14.088;2022-11-20T08:31:42;17.42;;;8.30;;
73264;SDS011;61493;51.008;14.088;2022-11-20T08:34:08;16.10;;;9.60;;
73264;SDS011;61493;51.008;14.088;2022-11-20T08:36:33;14.52;;;6.82;;
73264;SDS011;61493;51.008;14.088;2022-11-20T08:38:59;16.42;;;8.82;;
73264;SDS011;61493;51.008;14.088;2022-11-20T08:41:25;13.68;;;7.78;;
73264;SDS011;61493;51.008;14.088;2022-11-20T08:46:20;15.98;;;9.13;;
73264;SDS011;61493;51.008;14.088;2022-11-20T08:48:47;15.90;;;8.07;;
73264;SDS011;61493;51.008;14.088;2022-11-20T08:51:12;19.08;;;9.48;;
73264;SDS011;61493;51.008;14.088;2022-11-20T08:53:41;17.48;;;7.82;;
73264;SDS011;61493;51.008;14.088;2022-11-20T08:56:07;12.30;;;7.28;;
73264;SDS011;61493;51.008;14.088;2022-11-20T08:58:32;9.27;;;5.90;;
73264;SDS011;61493;51.008;14.088;2022-11-20T09:00:58;11.48;;;5.90;;
73264;SDS011;61493;51.008;14.088;2022-11-20T09:03:23;12.80;;;6.63;;
73264;SDS011;61493;51.008;14.088;2022-11-20T09:05:49;12.18;;;6.68;;
73264;SDS011;61493;51.008;14.088;2022-11-20T09:08:14;9.93;;;6.22;;
73264;SDS011;61493;51.008;14.088;2022-11-20T09:10:39;10.65;;;5.80;;
73264;SDS011;61493;51.008;14.088;2022-11-20T09:13:05;13.75;;;6.38;;
73264;SDS011;61493;51.008;14.088;2022-11-20T09:15:31;11.40;;;5.88;;
73264;SDS011;61493;51.008;14.088;2022-11-20T09:17:57;11.45;;;6.68;;
73264;SDS011;61493;51.008;14.088;2022-11-20T09:20:24;12.75;;;6.90;;
73264;SDS011;61493;51.008;14.088;2022-11-20T09:22:51;10.38;;;6.13;;
73264;SDS011;61493;51.008;14.088;2022-11-20T09:25:16;14.93;;;7.63;;
73264;SDS011;61493;51.008;14.088;2022-11-20T09:27:42;14.05;;;7.75;;
73264;SDS011;61493;51.008;14.088;2022-11-20T09:30:09;14.40;;;7.38;;
73264;SDS011;61493;51.008;14.088;2022-11-20T09:32:34;18.02;;;8.40;;
73264;SDS011;61493;51.008;14.088;2022-11-20T09:35:00;17.08;;;8.68;;
73264;SDS011;61493;51.008;14.088;2022-11-20T09:37:26;16.55;;;8.43;;
73264;SDS011;61493;51.008;14.088;2022-11-20T09:39:51;13.95;;;8.02;;
73264;SDS011;61493;51.008;14.088;2022-11-20T09:42:29;14.70;;;8.35;;
73264;SDS011;61493;51.008;14.088;2022-11-20T09:47:53;13.45;;;8.23;;
73264;SDS011;61493;51.008;14.088;2022-11-20T09:50:36;12.70;;;7.53;;
73264;SDS011;61493;51.008;14.088;2022-11-20T09:53:19;14.88;;;7.72;;
73264;SDS011;61493;51.008;14.088;2022-11-20T09:55:53;13.35;;;7.68;;
73264;SDS011;61493;51.008;14.088;2022-11-20T09:58:25;15.02;;;7.45;;
73264;SDS011;61493;51.008;14.088;2022-11-20T10:01:09;14.27;;;8.85;;
73264;SDS011;61493;51.008;14.088;2022-11-20T10:03:41;19.73;;;12.93;;
73264;SDS011;61493;51.008;14.088;2022-11-20T10:06:11;13.02;;;7.53;;
73264;SDS011;61493;51.008;14.088;2022-11-20T10:08:41;15.93;;;8.55;;
73264;SDS011;61493;51.008;14.088;2022-11-20T10:14:16;12.57;;;6.75;;
73264;SDS011;61493;51.008;14.088;2022-11-20T10:16:47;13.40;;;7.03;;
73264;SDS011;61493;51.008;14.088;2022-11-20T10:22:07;13.27;;;6.65;;
73264;SDS011;61493;51.008;14.088;2022-11-20T10:25:23;12.48;;;7.30;;
73264;SDS011;61493;51.008;14.088;2022-11-20T10:30:13;14.00;;;6.97;;
73264;SDS011;61493;51.008;14.088;2022-11-20T10:32:45;11.90;;;6.65;;
73264;SDS011;61493;51.008;14.088;2022-11-20T10:37:39;13.77;;;9.07;;
73264;SDS011;61493;51.008;14.088;2022-11-20T10:42:43;13.05;;;7.70;;
73264;SDS011;61493;51.008;14.088;2022-11-20T10:45:13;11.75;;;6.53;;
73264;SDS011;61493;51.008;14.088;2022-11-20T10:47:54;15.60;;;9.88;;
73264;SDS011;61493;51.008;14.088;2022-11-20T10:50:26;13.90;;;8.10;;
73264;SDS011;61493;51.008;14.088;2022-11-20T10:53:08;14.50;;;9.25;;
73264;SDS011;61493;51.008;14.088;2022-11-20T10:55:56;15.05;;;7.72;;
73264;SDS011;61493;51.008;14.088;2022-11-20T10:58:36;15.50;;;7.47;;
73264;SDS011;61493;51.008;14.088;2022-11-20T11:01:14;11.32;;;6.18;;
73264;SDS011;61493;51.008;14.088;2022-11-20T11:03:41;12.35;;;7.25;;
73264;SDS011;61493;51.008;14.088;2022-11-20T11:06:12;13.63;;;7.40;;
73264;SDS011;61493;51.008;14.088;2022-11-20T11:08:45;11.95;;;6.50;;
73264;SDS011;61493;51.008;14.088;2022-11-20T11:13:50;10.85;;;6.32;;
73264;SDS011;61493;51.008;14.088;2022-11-20T11:16:26;12.10;;;6.38;;
73264;SDS011;61493;51.008;14.088;2022-11-20T11:18:51;10.40;;;5.75;;
73264;SDS011;61493;51.008;14.088;2022-11-20T11:21:28;10.70;;;7.03;;
73264;SDS011;61493;51.008;14.088;2022-11-20T11:24:00;14.93;;;7.80;;
73264;SDS011;61493;51.008;14.088;2022-11-20T11:26:28;11.77;;;6.28;;
73264;SDS011;61493;51.008;14.088;2022-11-20T11:28:57;9.00;;;5.30;;
73264;SDS011;61493;51.008;14.088;2022-11-20T11:31:31;13.85;;;6.88;;
73264;SDS011;61493;51.008;14.088;2022-11-20T11:34:05;12.30;;;7.13;;
73264;SDS011;61493;51.008;14.088;2022-11-20T11:36:36;15.75;;;6.88;;
73264;SDS011;61493;51.008;14.088;2022-11-20T11:39:03;12.18;;;6.80;;
73264;SDS011;61493;51.008;14.088;2022-11-20T11:41:33;10.68;;;6.15;;
73264;SDS011;61493;51.008;14.088;2022-11-20T11:44:14;10.32;;;5.90;;
73264;SDS011;61493;51.008;14.088;2022-11-20T11:47:04;13.38;;;7.57;;
73264;SDS011;61493;51.008;14.088;2022-11-20T11:49:33;10.65;;;6.03;;
73264;SDS011;61493;51.008;14.088;2022-11-20T11:57:09;12.20;;;5.60;;
73264;SDS011;61493;51.008;14.088;2022-11-20T11:59:49;13.55;;;7.03;;
73264;SDS011;61493;51.008;14.088;2022-11-20T12:02:29;9.20;;;5.47;;
73264;SDS011;61493;51.008;14.088;2022-11-20T12:05:05;10.98;;;5.00;;
73264;SDS011;61493;51.008;14.088;2022-11-20T12:07:41;11.75;;;5.72;;
73264;SDS011;61493;51.008;14.088;2022-11-20T12:10:12;12.18;;;5.38;;
73264;SDS011;61493;51.008;14.088;2022-11-20T12:16:02;11.77;;;5.97;;
73264;SDS011;61493;51.008;14.088;2022-11-20T12:18:28;12.15;;;5.43;;
73264;SDS011;61493;51.008;14.088;2022-11-20T12:23:41;10.35;;;4.82;;
73264;SDS011;61493;51.008;14.088;2022-11-20T12:29:18;9.15;;;4.93;;
73264;SDS011;61493;51.008;14.088;2022-11-20T12:39:51;12.97;;;4.90;;
73264;SDS011;61493;51.008;14.088;2022-11-20T12:45:18;8.98;;;4.10;;
73264;SDS011;61493;51.008;14.088;2022-11-20T12:56:07;8.87;;;4.67;;
73264;SDS011;61493;51.008;14.088;2022-11-20T12:58:50;9.57;;;5.00;;
73264;SDS011;61493;51.008;14.088;2022-11-20T13:01:32;8.73;;;4.30;;
73264;SDS011;61493;51.008;14.088;2022-11-20T13:06:46;11.43;;;5.00;;
73264;SDS011;61493;51.008;14.088;2022-11-20T13:09:15;10.03;;;4.93;;
73264;SDS011;61493;51.008;14.088;2022-11-20T13:14:24;10.67;;;5.17;;
73264;SDS011;61493;51.008;14.088;2022-11-20T13:16:59;8.93;;;3.87;;
73264;SDS011;61493;51.008;14.088;2022-11-20T13:19:28;29.60;;;15.77;;
73264;SDS011;61493;51.008;14.088;2022-11-20T13:21:54;14.83;;;7.20;;
73264;SDS011;61493;51.008;14.088;2022-11-20T13:29:25;29.17;;;16.37;;
73264;SDS011;61493;51.008;14.088;2022-11-20T13:32:00;12.93;;;7.87;;
73264;SDS011;61493;51.008;14.088;2022-11-20T13:34:51;16.40;;;7.97;;
73264;SDS011;61493;51.008;14.088;2022-11-20T13:40:11;10.67;;;5.00;;
73264;SDS011;61493;51.008;14.088;2022-11-20T13:42:45;21.43;;;10.93;;
73264;SDS011;61493;51.008;14.088;2022-11-20T13:45:22;12.80;;;5.43;;
73264;SDS011;61493;51.008;14.088;2022-11-20T13:47:51;13.93;;;6.17;;
73264;SDS011;61493;51.008;14.088;2022-11-20T13:50:17;13.57;;;6.43;;
73264;SDS011;61493;51.008;14.088;2022-11-20T13:52:55;11.70;;;6.27;;
73264;SDS011;61493;51.008;14.088;2022-11-20T13:55:47;13.50;;;6.20;;
73264;SDS011;61493;51.008;14.088;2022-11-20T14:01:10;26.77;;;11.43;;
73264;SDS011;61493;51.008;14.088;2022-11-20T14:03:40;34.77;;;14.37;;
73264;SDS011;61493;51.008;14.088;2022-11-20T14:06:10;30.13;;;13.47;;
73264;SDS011;61493;51.008;14.088;2022-11-20T14:11:15;13.87;;;6.47;;
73264;SDS011;61493;51.008;14.088;2022-11-20T14:13:58;15.00;;;7.23;;
73264;SDS011;61493;51.008;14.088;2022-11-20T14:16:45;14.73;;;6.10;;
73264;SDS011;61493;51.008;14.088;2022-11-20T14:19:23;12.60;;;5.30;;
73264;SDS011;61493;51.008;14.088;2022-11-20T14:24:48;13.03;;;6.17;;
73264;SDS011;61493;51.008;14.088;2022-11-20T14:27:18;12.23;;;5.97;;
73264;SDS011;61493;51.008;14.088;2022-11-20T14:29:46;13.07;;;5.37;;
73264;SDS011;61493;51.008;14.088;2022-11-20T14:32:15;11.17;;;6.13;;
73264;SDS011;61493;51.008;14.088;2022-11-20T14:34:42;11.80;;;6.13;;
73264;SDS011;61493;51.008;14.088;2022-11-20T14:37:11;11.83;;;6.90;;
73264;SDS011;61493;51.008;14.088;2022-11-20T14:39:42;15.80;;;6.73;;
73264;SDS011;61493;51.008;14.088;2022-11-20T14:42:16;12.03;;;5.57;;
73264;SDS011;61493;51.008;14.088;2022-11-20T14:44:52;10.00;;;6.13;;
73264;SDS011;61493;51.008;14.088;2022-11-20T14:47:21;12.43;;;5.70;;
73264;SDS011;61493;51.008;14.088;2022-11-20T14:49:49;10.27;;;5.33;;
73264;SDS011;61493;51.008;14.088;2022-11-20T14:52:17;10.73;;;5.17;;
73264;SDS011;61493;51.008;14.088;2022-11-20T14:54:47;12.03;;;6.40;;
73264;SDS011;61493;51.008;14.088;2022-11-20T15:00:03;9.97;;;5.13;;
73264;SDS011;61493;51.008;14.088;2022-11-20T15:02:39;12.67;;;4.93;;
73264;SDS011;61493;51.008;14.088;2022-11-20T15:05:08;10.43;;;4.90;;
73264;SDS011;61493;51.008;14.088;2022-11-20T15:10:08;16.57;;;8.83;;
73264;SDS011;61493;51.008;14.088;2022-11-20T15:12:46;7.67;;;4.83;;
73264;SDS011;61493;51.008;14.088;2022-11-20T15:15:19;9.50;;;4.70;;
73264;SDS011;61493;51.008;14.088;2022-11-20T15:18:04;7.13;;;4.37;;
73264;SDS011;61493;51.008;14.088;2022-11-20T15:20:31;7.73;;;4.77;;
73264;SDS011;61493;51.008;14.088;2022-11-20T15:22:57;9.30;;;4.80;;
73264;SDS011;61493;51.008;14.088;2022-11-20T15:25:23;11.20;;;5.63;;
73264;SDS011;61493;51.008;14.088;2022-11-20T15:27:50;8.33;;;4.77;;
73264;SDS011;61493;51.008;14.088;2022-11-20T15:30:19;8.00;;;4.40;;
73264;SDS011;61493;51.008;14.088;2022-11-20T15:32:46;9.07;;;3.80;;
73264;SDS011;61493;51.008;14.088;2022-11-20T15:35:12;7.93;;;3.83;;
73264;SDS011;61493;51.008;14.088;2022-11-20T15:37:38;8.57;;;4.53;;
73264;SDS011;61493;51.008;14.088;2022-11-20T15:40:04;8.83;;;4.80;;
73264;SDS011;61493;51.008;14.088;2022-11-20T15:42:31;8.10;;;4.73;;
73264;SDS011;61493;51.008;14.088;2022-11-20T15:44:57;8.77;;;4.00;;
73264;SDS011;61493;51.008;14.088;2022-11-20T15:47:24;11.03;;;5.23;;
73264;SDS011;61493;51.008;14.088;2022-11-20T15:49:52;8.67;;;4.30;;
73264;SDS011;61493;51.008;14.088;2022-11-20T15:52:17;9.57;;;4.83;;
73264;SDS011;61493;51.008;14.088;2022-11-20T15:54:42;10.63;;;5.40;;
73264;SDS011;61493;51.008;14.088;2022-11-20T15:57:08;9.40;;;5.17;;
73264;SDS011;61493;51.008;14.088;2022-11-20T15:59:33;7.43;;;3.70;;
73264;SDS011;61493;51.008;14.088;2022-11-20T16:01:59;9.70;;;4.27;;